createdAt,value
2022-08-11T00:02:29.378Z,86.30
2022-08-11T00:05:05.247Z,86.80
2022-08-11T00:07:33.726Z,87.10
2022-08-11T00:10:02.557Z,87.40
2022-08-11T00:12:36.855Z,87.50
2022-08-11T00:15:05.833Z,87.30
2022-08-11T00:17:35.412Z,87.30
2022-08-11T00:20:15.315Z,87.30
2022-08-11T00:22:48.486Z,87.20
2022-08-11T00:25:18.528Z,87.10
2022-08-11T00:27:48.062Z,87.20
2022-08-11T00:30:17.914Z,87.50
2022-08-11T00:32:56.058Z,87.60
2022-08-11T00:35:51.872Z,87.70
2022-08-11T00:38:23.761Z,87.90
2022-08-11T00:40:57.865Z,88.20
2022-08-11T00:43:45.794Z,88.40
2022-08-11T00:46:23.339Z,88.80
2022-08-11T00:49:09.018Z,89.00
2022-08-11T00:52:04.312Z,89.40
2022-08-11T00:55:09.362Z,89.60
2022-08-11T00:58:06.937Z,89.90
2022-08-11T01:00:43.649Z,90.10
2022-08-11T01:03:28.374Z,90.30
2022-08-11T01:06:22.578Z,90.40
2022-08-11T01:09:26.366Z,90.50
2022-08-11T01:12:17.473Z,90.60
2022-08-11T01:15:24.354Z,90.80
2022-08-11T01:18:28.743Z,90.90
2022-08-11T01:21:20.117Z,91.10
2022-08-11T01:24:27.975Z,91.10
2022-08-11T01:27:19.165Z,91.20
2022-08-11T01:30:15.123Z,91.30
2022-08-11T01:33:16.816Z,91.50
2022-08-11T01:36:30.116Z,91.60
2022-08-11T01:39:33.027Z,91.60
2022-08-11T01:43:04.682Z,91.60
2022-08-11T01:45:40.915Z,91.60
2022-08-11T01:48:21.666Z,91.60
2022-08-11T01:51:06.422Z,91.90
2022-08-11T01:53:47.526Z,92.20
2022-08-11T01:56:30.822Z,92.20
2022-08-11T01:59:16.771Z,92.20
2022-08-11T02:02:05.072Z,92.20
2022-08-11T02:04:39.229Z,92.20
2022-08-11T02:07:18.220Z,92.20
2022-08-11T02:10:25.208Z,92.20
2022-08-11T02:13:11.420Z,92.30
2022-08-11T02:15:49.605Z,92.30
2022-08-11T02:18:22.837Z,92.30
2022-08-11T02:21:14.534Z,92.20
2022-08-11T02:24:04.879Z,92.10
2022-08-11T02:26:42.634Z,92.00
2022-08-11T02:29:18.833Z,92.00
2022-08-11T02:32:28.593Z,92.00
2022-08-11T02:35:06.057Z,91.90
2022-08-11T02:37:46.896Z,91.90
2022-08-11T02:40:25.073Z,92.00
2022-08-11T02:43:07.785Z,92.20
2022-08-11T02:45:52.486Z,92.30
2022-08-11T02:48:50.789Z,92.40
2022-08-11T02:51:30.884Z,92.50
2022-08-11T02:54:07.585Z,92.60
2022-08-11T02:56:44.549Z,92.60
2022-08-11T02:59:43.947Z,92.50
2022-08-11T03:02:23.373Z,92.50
2022-08-11T03:05:03.816Z,92.60
2022-08-11T03:07:35.969Z,92.70
2022-08-11T03:10:11.294Z,93.30
2022-08-11T03:13:04.238Z,93.10
2022-08-11T03:16:03.624Z,93.20
2022-08-11T03:18:39.153Z,93.30
2022-08-11T03:21:16.119Z,93.70
2022-08-11T03:23:54.757Z,93.50
2022-08-11T03:26:29.032Z,93.60
2022-08-11T03:29:07.650Z,93.70
2022-08-11T03:31:46.099Z,93.70
2022-08-11T03:34:18.390Z,93.80
2022-08-11T03:37:34.529Z,93.90
2022-08-11T03:40:14.307Z,94.00
2022-08-11T03:42:47.460Z,94.10
2022-08-11T03:45:24.763Z,94.20
2022-08-11T03:48:07.098Z,94.30
2022-08-11T03:50:55.655Z,94.20
2022-08-11T03:53:48.837Z,94.20
2022-08-11T03:56:43.209Z,94.10
2022-08-11T03:59:53.506Z,94.10
2022-08-11T04:03:00.077Z,94.00
2022-08-11T04:05:50.654Z,94.10
2022-08-11T04:08:56.069Z,94.20
2022-08-11T04:11:59.049Z,94.30
2022-08-11T04:15:28.086Z,94.40
2022-08-11T04:18:25.528Z,94.40
2022-08-11T04:21:06.928Z,94.50
2022-08-11T04:24:35.529Z,94.60
2022-08-11T04:27:21.113Z,94.90
2022-08-11T04:30:08.937Z,95.40
2022-08-11T04:33:17.877Z,95.20
2022-08-11T04:35:56.117Z,95.30
2022-08-11T04:38:50.069Z,95.40
2022-08-11T04:42:13.881Z,95.50
2022-08-11T04:45:36.534Z,95.70
2022-08-11T04:48:40.905Z,95.80
2022-08-11T04:51:51.156Z,95.80
2022-08-11T04:54:50.163Z,95.90
2022-08-11T04:57:41.143Z,95.90
2022-08-11T05:00:28.922Z,95.90
2022-08-11T05:03:41.537Z,95.90
2022-08-11T05:06:28.134Z,95.90
2022-08-11T05:09:20.362Z,95.60
2022-08-11T05:12:10.782Z,95.40
2022-08-11T05:15:04.169Z,95.10
2022-08-11T05:18:00.406Z,94.90
2022-08-11T05:20:48.411Z,94.70
2022-08-11T05:23:35.980Z,94.60
2022-08-11T05:26:46.149Z,94.50
2022-08-11T05:29:46.410Z,94.10
2022-08-11T05:32:35.692Z,94.00
2022-08-11T05:35:07.390Z,93.80
2022-08-11T05:37:42.500Z,93.60
2022-08-11T05:40:30.547Z,93.50
2022-08-11T05:43:18.186Z,93.50
2022-08-11T05:46:15.766Z,93.50
2022-08-11T05:49:02.214Z,93.40
2022-08-11T05:51:55.442Z,93.20
2022-08-11T05:54:42.259Z,93.10
2022-08-11T05:57:48.926Z,92.90
2022-08-11T06:00:10.348Z,92.70
2022-08-11T06:02:44.304Z,92.40
2022-08-11T06:05:14.157Z,92.10
2022-08-11T06:07:48.912Z,91.90
2022-08-11T06:10:28.082Z,91.60
2022-08-11T06:12:58.145Z,91.30
2022-08-11T06:15:27.370Z,91.10
2022-08-11T06:17:58.401Z,90.80
2022-08-11T06:20:26.952Z,90.50
2022-08-11T06:23:00.015Z,90.30
2022-08-11T06:25:33.111Z,90.00
2022-08-11T06:28:01.833Z,89.70
2022-08-11T06:30:39.660Z,89.20
2022-08-11T06:33:12.165Z,88.80
2022-08-11T06:35:48.941Z,88.20
2022-08-11T06:38:29.108Z,87.70
2022-08-11T06:41:19.519Z,87.20
2022-08-11T06:43:55.841Z,86.80
2022-08-11T06:46:30.381Z,86.40
2022-08-11T06:49:03.097Z,86.00
2022-08-11T06:51:32.517Z,85.90
2022-08-11T06:54:05.545Z,85.80
2022-08-11T06:57:26.449Z,85.30
2022-08-11T07:00:04.412Z,84.60
2022-08-11T07:02:35.247Z,83.40
2022-08-11T07:05:11.691Z,83.20
2022-08-11T07:08:42.631Z,83.00
2022-08-11T07:12:02.066Z,82.30
2022-08-11T07:14:49.687Z,81.80
2022-08-11T07:17:21.837Z,81.40
2022-08-11T07:20:12.455Z,80.90
2022-08-11T07:23:02.088Z,79.90
2022-08-11T07:25:50.131Z,79.20
2022-08-11T07:28:40.129Z,78.50
2022-08-11T07:31:13.986Z,77.60
2022-08-11T07:34:06.982Z,77.40
2022-08-11T07:36:38.780Z,76.60
2022-08-11T07:39:15.145Z,76.30
2022-08-11T07:41:44.194Z,76.10
2022-08-11T07:44:13.313Z,76.00
2022-08-11T07:47:01.184Z,75.70
2022-08-11T07:49:49.673Z,75.70
2022-08-11T07:52:30.595Z,75.20
2022-08-11T07:55:02.843Z,74.00
2022-08-11T07:58:16.098Z,73.60
2022-08-11T08:01:01.109Z,73.20
2022-08-11T08:03:53.862Z,72.30
2022-08-11T08:06:41.258Z,71.90
2022-08-11T08:09:28.328Z,71.50
2022-08-11T08:12:18.051Z,72.10
2022-08-11T08:15:03.499Z,69.90
2022-08-11T08:18:09.997Z,69.10
2022-08-11T08:20:43.710Z,68.80
2022-08-11T08:23:12.129Z,68.20
2022-08-11T08:25:43.247Z,68.00
2022-08-11T08:28:16.018Z,66.90
2022-08-11T08:30:51.002Z,66.40
2022-08-11T08:33:21.920Z,65.20
2022-08-11T08:36:11.179Z,64.50
2022-08-11T08:38:41.277Z,62.80
2022-08-11T08:41:16.346Z,62.40
2022-08-11T08:43:49.569Z,61.80
2022-08-11T08:46:20.656Z,59.90
2022-08-11T08:48:50.357Z,59.20
2022-08-11T08:52:01.845Z,59.00
2022-08-11T08:54:26.394Z,58.50
2022-08-11T08:56:57.085Z,59.00
2022-08-11T08:59:47.654Z,59.20
2022-08-11T09:02:18.035Z,58.90
2022-08-11T09:04:47.801Z,58.10
2022-08-11T09:07:18.454Z,58.40
2022-08-11T09:09:49.220Z,58.40
2022-08-11T09:12:35.719Z,58.30
2022-08-11T09:15:11.541Z,58.50
2022-08-11T09:17:44.514Z,58.20
2022-08-11T09:20:14.609Z,58.70
2022-08-11T09:23:41.694Z,58.90
2022-08-11T09:26:11.051Z,58.90
2022-08-11T09:28:39.634Z,58.50
2022-08-11T09:31:10.821Z,58.10
2022-08-11T09:33:39.434Z,58.40
2022-08-11T09:36:36.172Z,57.80
2022-08-11T09:39:24.215Z,58.10
2022-08-11T09:42:00.898Z,56.30
2022-08-11T09:44:48.805Z,57.00
2022-08-11T09:47:24.697Z,56.60
2022-08-11T09:49:56.139Z,56.00
2022-08-11T09:52:25.675Z,56.00
2022-08-11T09:54:55.530Z,56.10
2022-08-11T09:57:41.442Z,56.00
2022-08-11T10:00:12.657Z,56.10
2022-08-11T10:02:45.334Z,55.90
2022-08-11T10:05:35.918Z,56.20
2022-08-11T10:08:05.590Z,56.00
2022-08-11T10:10:37.257Z,55.80
2022-08-11T10:14:30.534Z,55.20
2022-08-11T10:16:03.624Z,54.70
2022-08-11T10:18:52.594Z,54.60
2022-08-11T10:21:28.356Z,54.10
2022-08-11T10:24:16.780Z,53.80
2022-08-11T10:27:00.593Z,53.10
2022-08-11T10:29:51.147Z,51.60
2022-08-11T10:32:52.194Z,51.60
2022-08-11T10:35:28.549Z,51.50
2022-08-11T10:38:06.463Z,49.80
2022-08-11T10:40:39.053Z,50.20
2022-08-11T10:43:13.199Z,49.70
2022-08-11T10:46:01.454Z,49.80
2022-08-11T10:48:31.155Z,48.70
2022-08-11T10:51:15.660Z,48.60
2022-08-11T10:54:21.073Z,48.80
2022-08-11T10:57:06.764Z,48.70
2022-08-11T10:59:35.461Z,48.90
2022-08-11T11:02:03.778Z,48.20
2022-08-11T11:04:45.590Z,48.70
2022-08-11T11:07:24.110Z,49.00
2022-08-11T11:09:55.614Z,49.00
2022-08-11T11:12:45.665Z,49.30
2022-08-11T11:15:32.746Z,48.90
2022-08-11T11:18:07.377Z,48.30
2022-08-11T11:20:46.557Z,47.20
2022-08-11T11:23:19.962Z,47.00
2022-08-11T11:26:09.948Z,46.90
2022-08-11T11:29:03.992Z,47.20
2022-08-11T11:31:45.950Z,47.80
2022-08-11T11:34:31.428Z,47.10
2022-08-11T11:37:02.526Z,46.70
2022-08-11T11:39:33.516Z,47.10
2022-08-11T11:42:05.210Z,46.50
2022-08-11T11:44:33.829Z,46.20
2022-08-11T11:47:02.157Z,46.30
2022-08-11T11:49:32.526Z,46.30
2022-08-11T11:52:01.730Z,45.40
2022-08-11T11:54:33.737Z,45.40
2022-08-11T11:57:26.051Z,45.10
2022-08-11T12:00:13.056Z,44.60
2022-08-11T12:02:42.996Z,45.00
2022-08-11T12:05:14.746Z,44.70
2022-08-11T12:08:12.786Z,45.60
2022-08-11T12:10:45.752Z,45.90
2022-08-11T12:13:32.636Z,45.70
2022-08-11T12:16:31.364Z,45.50
2022-08-11T12:18:53.749Z,45.20
2022-08-11T12:21:22.720Z,45.50
2022-08-11T12:24:09.082Z,45.60
2022-08-11T12:27:16.132Z,44.80
2022-08-11T12:29:43.914Z,44.90
2022-08-11T12:32:12.599Z,44.30
2022-08-11T12:34:40.601Z,44.60
2022-08-11T12:37:13.518Z,45.00
2022-08-11T12:40:12.913Z,45.20
2022-08-11T12:43:21.589Z,45.40
2022-08-11T12:45:58.294Z,44.70
2022-08-11T12:49:00.750Z,44.80
2022-08-11T12:52:00.832Z,44.80
2022-08-11T12:54:46.721Z,45.10
2022-08-11T12:57:36.425Z,44.70
2022-08-11T13:00:26.150Z,44.90
2022-08-11T13:03:13.697Z,44.60
2022-08-11T13:05:44.525Z,44.60
2022-08-11T13:08:15.031Z,44.30
2022-08-11T13:11:01.782Z,44.80
2022-08-11T13:13:55.312Z,44.90
2022-08-11T13:16:20.479Z,45.30
2022-08-11T13:18:48.961Z,45.40
2022-08-11T13:21:20.050Z,45.10
2022-08-11T13:23:59.688Z,45.10
2022-08-11T13:26:43.178Z,44.70
2022-08-11T13:29:21.671Z,45.30
2022-08-11T13:31:52.423Z,45.30
2022-08-11T13:34:22.569Z,45.30
2022-08-11T13:36:53.033Z,44.60
2022-08-11T13:39:23.961Z,44.70
2022-08-11T13:41:54.416Z,45.10
2022-08-11T13:44:25.794Z,45.10
2022-08-11T13:46:59.281Z,45.00
2022-08-11T13:49:28.044Z,45.10
2022-08-11T13:51:57.005Z,45.10
2022-08-11T13:54:28.452Z,45.00
2022-08-11T13:57:01.501Z,44.50
2022-08-11T13:59:31.390Z,44.80
2022-08-11T14:02:21.347Z,45.00
2022-08-11T14:04:57.934Z,45.40
2022-08-11T14:07:40.195Z,45.20
2022-08-11T14:10:12.942Z,45.10
2022-08-11T14:13:02.070Z,45.40
2022-08-11T14:15:33.841Z,45.20
2022-08-11T14:18:06.242Z,45.00
2022-08-11T14:20:50.634Z,44.80
2022-08-11T14:23:20.970Z,44.50
2022-08-11T14:26:03.316Z,43.50
2022-08-11T14:28:38.839Z,43.40
2022-08-11T14:31:12.880Z,43.80
2022-08-11T14:34:00.323Z,43.20
2022-08-11T14:36:33.800Z,43.20
2022-08-11T14:39:07.828Z,43.20
2022-08-11T14:42:11.190Z,43.10
2022-08-11T14:45:01.658Z,43.50
2022-08-11T14:47:31.720Z,43.60
2022-08-11T14:50:11.813Z,43.40
2022-08-11T14:52:46.562Z,43.20
2022-08-11T14:55:32.945Z,42.80
2022-08-11T14:58:02.767Z,43.10
2022-08-11T15:00:32.155Z,44.00
2022-08-11T15:03:13.409Z,44.30
2022-08-11T15:05:55.857Z,44.60
2022-08-11T15:08:41.250Z,45.50
2022-08-11T15:11:31.197Z,45.10
2022-08-11T15:14:01.029Z,45.60
2022-08-11T15:16:48.207Z,45.50
2022-08-11T15:19:17.201Z,45.60
2022-08-11T15:22:04.104Z,45.50
2022-08-11T15:24:33.557Z,45.70
2022-08-11T15:27:22.717Z,45.40
2022-08-11T15:30:21.025Z,45.80
2022-08-11T15:33:17.727Z,45.30
2022-08-11T15:36:03.594Z,45.80
2022-08-11T15:38:36.693Z,45.80
2022-08-11T15:41:24.970Z,46.30
2022-08-11T15:44:12.920Z,46.40
2022-08-11T15:46:44.833Z,46.60
2022-08-11T15:49:22.046Z,46.60
2022-08-11T15:52:00.271Z,46.80
2022-08-11T15:54:33.528Z,46.70
2022-08-11T15:57:03.246Z,47.00
2022-08-11T15:59:52.254Z,47.00
2022-08-11T16:02:41.368Z,47.20
2022-08-11T16:05:13.785Z,47.40
2022-08-11T16:08:02.757Z,47.50
2022-08-11T16:10:34.257Z,47.30
2022-08-11T16:13:22.621Z,47.00
2022-08-11T16:16:07.179Z,47.10
2022-08-11T16:18:42.442Z,47.40
2022-08-11T16:21:33.738Z,47.30
2022-08-11T16:24:05.671Z,47.30
2022-08-11T16:27:08.535Z,47.30
2022-08-11T16:29:28.037Z,47.60
2022-08-11T16:32:14.978Z,47.60
2022-08-11T16:35:02.400Z,47.80
2022-08-11T16:37:50.222Z,47.80
2022-08-11T16:40:20.098Z,47.80
2022-08-11T16:43:10.784Z,48.00
2022-08-11T16:45:58.087Z,48.20
2022-08-11T16:48:35.388Z,48.80
2022-08-11T16:51:06.670Z,48.80
2022-08-11T16:54:00.090Z,48.60
2022-08-11T16:56:26.029Z,48.40
2022-08-11T16:59:14.923Z,48.10
2022-08-11T17:01:49.742Z,48.20
2022-08-11T17:04:43.269Z,48.10
2022-08-11T17:07:50.549Z,48.30
2022-08-11T17:10:52.563Z,48.20
2022-08-11T17:13:30.048Z,48.00
2022-08-11T17:16:11.506Z,47.60
2022-08-11T17:18:49.402Z,47.70
2022-08-11T17:21:20.664Z,47.40
2022-08-11T17:23:51.745Z,47.40
2022-08-11T17:26:24.006Z,47.60
2022-08-11T17:28:57.244Z,47.90
2022-08-11T17:31:47.128Z,48.50
2022-08-11T17:34:33.887Z,48.90
2022-08-11T17:37:02.235Z,49.00
2022-08-11T17:39:32.609Z,49.20
2022-08-11T17:42:20.170Z,49.30
2022-08-11T17:45:07.175Z,49.60
2022-08-11T17:47:55.042Z,49.80
2022-08-11T17:50:24.094Z,50.10
2022-08-11T17:53:11.142Z,50.40
2022-08-11T17:55:58.135Z,50.50
2022-08-11T17:58:44.975Z,50.80
2022-08-11T18:01:13.886Z,50.80
2022-08-11T18:03:53.226Z,51.00
2022-08-11T18:06:34.360Z,51.00
2022-08-11T18:09:24.079Z,51.00
2022-08-11T18:12:12.708Z,51.20
2022-08-11T18:15:00.324Z,51.50
2022-08-11T18:17:45.896Z,52.20
2022-08-11T18:20:32.551Z,52.90
2022-08-11T18:23:21.631Z,53.40
2022-08-11T18:26:28.869Z,54.00
2022-08-11T18:29:16.370Z,54.40
2022-08-11T18:32:06.920Z,54.70
2022-08-11T18:34:58.899Z,55.10
2022-08-11T18:37:49.836Z,55.40
2022-08-11T18:40:38.378Z,55.60
2022-08-11T18:43:29.128Z,56.00
2022-08-11T18:46:20.852Z,56.40
2022-08-11T18:49:15.415Z,56.70
2022-08-11T18:52:04.244Z,56.80
2022-08-11T18:54:55.449Z,57.20
2022-08-11T18:57:50.056Z,57.40
2022-08-11T19:00:40.986Z,57.60
2022-08-11T19:03:28.261Z,57.90
2022-08-11T19:06:39.200Z,58.00
2022-08-11T19:09:25.490Z,58.00
2022-08-11T19:12:13.685Z,58.10
2022-08-11T19:15:01.118Z,58.20
2022-08-11T19:17:50.168Z,58.30
2022-08-11T19:20:38.972Z,58.50
2022-08-11T19:23:27.448Z,58.60
2022-08-11T19:26:14.131Z,58.80
2022-08-11T19:29:03.583Z,58.90
2022-08-11T19:31:49.486Z,59.20
2022-08-11T19:34:37.625Z,59.60
2022-08-11T19:37:25.548Z,59.70
2022-08-11T19:40:12.634Z,60.00
2022-08-11T19:42:59.761Z,60.40
2022-08-11T19:45:52.473Z,61.20
2022-08-11T19:48:40.764Z,61.60
2022-08-11T19:51:27.842Z,61.90
2022-08-11T19:54:14.482Z,62.20
2022-08-11T19:57:00.841Z,62.40
2022-08-11T19:59:46.830Z,62.60
2022-08-11T20:02:34.238Z,62.50
2022-08-11T20:05:20.180Z,62.70
2022-08-11T20:08:06.754Z,62.80
2022-08-11T20:10:54.161Z,62.90
2022-08-11T20:13:43.611Z,63.20
2022-08-11T20:16:31.889Z,63.50
2022-08-11T20:19:26.169Z,63.60
2022-08-11T20:22:26.658Z,63.90
2022-08-11T20:25:14.364Z,64.80
2022-08-11T20:28:02.776Z,64.30
2022-08-11T20:30:51.714Z,64.40
2022-08-11T20:33:38.674Z,64.60
2022-08-11T20:36:26.650Z,64.80
2022-08-11T20:39:14.204Z,65.00
2022-08-11T20:42:01.029Z,65.30
2022-08-11T20:44:48.060Z,65.50
2022-08-11T20:47:59.508Z,65.80
2022-08-11T20:50:45.852Z,66.30
2022-08-11T20:53:35.937Z,66.80
2022-08-11T20:56:28.785Z,67.20
2022-08-11T20:59:18.393Z,67.70
2022-08-11T21:02:10.006Z,68.10
2022-08-11T21:04:56.924Z,68.00
2022-08-11T21:07:55.263Z,67.80
2022-08-11T21:10:46.810Z,67.80
2022-08-11T21:13:37.016Z,68.00
2022-08-11T21:16:26.427Z,68.70
2022-08-11T21:19:17.938Z,69.10
2022-08-11T21:22:06.413Z,69.50
2022-08-11T21:24:52.978Z,69.70
2022-08-11T21:27:42.259Z,70.20
2022-08-11T21:30:28.755Z,70.30
2022-08-11T21:33:15.122Z,70.70
2022-08-11T21:36:00.975Z,71.10
2022-08-11T21:38:47.502Z,71.50
2022-08-11T21:41:34.542Z,72.10
2022-08-11T21:44:24.681Z,72.50
2022-08-11T21:47:12.066Z,72.70
2022-08-11T21:49:58.995Z,73.10
2022-08-11T21:52:45.360Z,73.40
2022-08-11T21:55:32.211Z,73.70
2022-08-11T21:58:19.723Z,73.80
2022-08-11T22:01:07.287Z,73.80
2022-08-11T22:03:53.405Z,73.90
2022-08-11T22:06:39.909Z,74.20
2022-08-11T22:09:26.606Z,74.70
2022-08-11T22:12:29.504Z,75.10
2022-08-11T22:15:17.996Z,75.40
2022-08-11T22:18:04.947Z,75.80
2022-08-11T22:20:51.362Z,76.00
2022-08-11T22:23:37.768Z,76.10
2022-08-11T22:26:25.345Z,76.10
2022-08-11T22:29:11.297Z,76.20
2022-08-11T22:31:59.129Z,76.30
2022-08-11T22:34:53.331Z,76.20
2022-08-11T22:37:40.060Z,76.20
2022-08-11T22:40:27.566Z,76.20
2022-08-11T22:43:13.173Z,76.10
2022-08-11T22:45:58.885Z,76.00
2022-08-11T22:48:46.833Z,75.80
2022-08-11T22:51:35.953Z,75.70
2022-08-11T22:54:22.568Z,75.40
2022-08-11T22:57:09.049Z,75.20
2022-08-11T22:59:55.505Z,74.90
2022-08-11T23:02:42.030Z,74.80
2022-08-11T23:05:28.177Z,74.80
2022-08-11T23:08:16.325Z,75.00
2022-08-11T23:11:02.306Z,75.20
2022-08-11T23:13:50.741Z,75.30
2022-08-11T23:16:36.798Z,75.70
2022-08-11T23:20:08.334Z,76.00
2022-08-11T23:22:49.557Z,76.40
2022-08-11T23:25:36.210Z,77.10
2022-08-11T23:28:24.385Z,77.30
2022-08-11T23:31:13.396Z,77.20
2022-08-11T23:34:03.336Z,77.20
2022-08-11T23:36:48.733Z,77.30
2022-08-11T23:39:35.234Z,77.60
2022-08-11T23:42:22.435Z,77.60
2022-08-11T23:45:10.107Z,77.40
2022-08-11T23:47:57.585Z,77.30
2022-08-11T23:50:43.607Z,77.10
2022-08-11T23:53:29.974Z,77.10
2022-08-11T23:56:16.138Z,77.10
2022-08-11T23:59:04.047Z,77.00
